Eleonora E — MEDD4 — position and weather

sailwx.info

Track history (hours):
 
Tides and Currents Weather Stations Pressure Air Temp Water Temp Dewpoint Dewpoint Depression Visibility Wind Speed Wind Dir Waves Ship Positions

Eleonora E

Last reported at 2016-Aug-09 02:09 UTC. Time now 2016-Aug-25 02:43 UTC.
Position N 43°01' E 009°19'.
Warning: this ship's position is 16 days out of date.

Length 41 m; draft 5.2 m.

Type: Sailing vessel. MMSI: 235008680.

Date/timePositionNaut miles runAvg speedWind from/ knotsBaromVisibWave heightAir tempDewpointWater temp
2016-Aug-09 02:09N 43°01' E 009°19'3 4.4
2016-Aug-09 01:33N 43°04' E 009°19'8 8.4
2016-Aug-09 00:34N 43°12' E 009°18'17 8.2
2016-Aug-08 22:29N 43°29' E 009°14'4 4.4
2016-Aug-08 21:33N 43°33' E 009°14'6 6.0
2016-Aug-08 20:34N 43°39' E 009°15'6 6.0
2016-Aug-08 19:34N 43°45' E 009°16'6 6.0
2016-Aug-08 18:33N 43°50' E 009°14'8 8.3
2016-Aug-08 17:34N 43°59' E 009°12'6 5.7
2016-Aug-08 16:33N 44°04' E 009°11'8 8.4
2016-Aug-08 15:33N 44°13' E 009°10'6 5.7
2016-Aug-08 14:34N 44°18' E 009°10'2 0.2
2016-Aug-08 04:31N 44°19' E 009°13'0 0.0
2016-Aug-08 03:27N 44°19' E 009°13'0 0.0
2016-Aug-08 00:15N 44°19' E 009°13'0 0.0
2016-Aug-07 23:10N 44°19' E 009°13'0 0.0
2016-Aug-07 21:18N 44°19' E 009°13'  
2016-Aug-05 02:33N 44°17' E 009°12'1110.0
2016-Aug-05 01:29N 44°12' E 008°59'58 5.7
2016-Aug-04 15:10N 43°47' E 007°45'610.3
2016-Aug-04 14:34N 43°45' E 007°37'13 9.9
2016-Aug-04 13:13N 43°40' E 007°20'2 2.7
2016-Aug-04 12:19N 43°41' E 007°17'0 0.2
2016-Aug-04 11:31N 43°41' E 007°17'0 0.3
2016-Aug-04 10:31N 43°41' E 007°16'8 8.5
2016-Aug-04 09:33N 43°36' E 007°08'0 0.0
2016-Aug-04 08:33N 43°36' E 007°08'0 0.0
2016-Aug-04 07:33N 43°36' E 007°08'0 0.0
2016-Aug-04 06:33N 43°36' E 007°08'0 0.0
2016-Aug-04 04:33N 43°36' E 007°08'0 0.0
2016-Aug-04 03:33N 43°36' E 007°08'0 0.0
2016-Aug-04 02:33N 43°36' E 007°08'0 0.0
2016-Aug-04 01:33N 43°36' E 007°08'0 0.0
2016-Aug-04 00:33N 43°36' E 007°08'0 0.0
2016-Aug-03 23:33N 43°36' E 007°08'0 0.0
2016-Aug-03 22:33N 43°36' E 007°08'0 0.0
2016-Aug-03 21:33N 43°36' E 007°08'0 0.0
2016-Aug-03 20:33N 43°36' E 007°08'0 0.0
2016-Aug-03 19:33N 43°36' E 007°08'0 0.0
2016-Aug-03 18:33N 43°36' E 007°08'0 0.0
2016-Aug-03 17:34N 43°36' E 007°08'0 0.0
2016-Aug-03 16:34N 43°36' E 007°08'0 0.0
2016-Aug-03 15:34N 43°36' E 007°08'0 0.0
2016-Aug-03 14:33N 43°36' E 007°08'3 3.0
2016-Aug-03 13:34N 43°33' E 007°09'41 9.7
2016-Aug-03 09:24N 43°00' E 006°37'16 8.8
2016-Aug-03 07:33N 42°52' E 006°17'9 9.0
2016-Aug-03 06:32N 42°47' E 006°06'  
2016-Jul-31 14:19N 41°06' E 001°15'0 0.0
2016-Jul-31 12:33N 41°06' E 001°15'0 0.0
2016-Jul-30 09:21N 41°06' E 001°15'  
Track history (hours):
 
Tides and Currents Weather Stations Pressure Air Temp Water Temp Dewpoint Dewpoint Depression Visibility Wind Speed Wind Dir Waves Ship Positions

Eleonora E

Last reported at 2016-Aug-09 02:09 UTC. Time now 2016-Aug-25 02:43 UTC.
Position N 43°01' E 009°19'.
Warning: this ship's position is 16 days out of date.

Length 41 m; draft 5.2 m.

Type: Sailing vessel. MMSI: 235008680.

Date/timePositionNaut miles runAvg speedWind from/ knotsBaromVisibWave heightAir tempDewpointWater temp
2016-Aug-09 02:09N 43°01' E 009°19'3 4.4
2016-Aug-09 01:33N 43°04' E 009°19'8 8.4
2016-Aug-09 00:34N 43°12' E 009°18'17 8.2
2016-Aug-08 22:29N 43°29' E 009°14'4 4.4
2016-Aug-08 21:33N 43°33' E 009°14'6 6.0
2016-Aug-08 20:34N 43°39' E 009°15'6 6.0
2016-Aug-08 19:34N 43°45' E 009°16'6 6.0
2016-Aug-08 18:33N 43°50' E 009°14'8 8.3
2016-Aug-08 17:34N 43°59' E 009°12'6 5.7
2016-Aug-08 16:33N 44°04' E 009°11'8 8.4
2016-Aug-08 15:33N 44°13' E 009°10'6 5.7
2016-Aug-08 14:34N 44°18' E 009°10'2 0.2
2016-Aug-08 04:31N 44°19' E 009°13'0 0.0
2016-Aug-08 03:27N 44°19' E 009°13'0 0.0
2016-Aug-08 00:15N 44°19' E 009°13'0 0.0
2016-Aug-07 23:10N 44°19' E 009°13'0 0.0
2016-Aug-07 21:18N 44°19' E 009°13'  
2016-Aug-05 02:33N 44°17' E 009°12'1110.0
2016-Aug-05 01:29N 44°12' E 008°59'58 5.7
2016-Aug-04 15:10N 43°47' E 007°45'610.3
2016-Aug-04 14:34N 43°45' E 007°37'13 9.9
2016-Aug-04 13:13N 43°40' E 007°20'2 2.7
2016-Aug-04 12:19N 43°41' E 007°17'0 0.2
2016-Aug-04 11:31N 43°41' E 007°17'0 0.3
2016-Aug-04 10:31N 43°41' E 007°16'8 8.5
2016-Aug-04 09:33N 43°36' E 007°08'0 0.0
2016-Aug-04 08:33N 43°36' E 007°08'0 0.0
2016-Aug-04 07:33N 43°36' E 007°08'0 0.0
2016-Aug-04 06:33N 43°36' E 007°08'0 0.0
2016-Aug-04 04:33N 43°36' E 007°08'0 0.0
2016-Aug-04 03:33N 43°36' E 007°08'0 0.0
2016-Aug-04 02:33N 43°36' E 007°08'0 0.0
2016-Aug-04 01:33N 43°36' E 007°08'0 0.0
2016-Aug-04 00:33N 43°36' E 007°08'0 0.0
2016-Aug-03 23:33N 43°36' E 007°08'0 0.0
2016-Aug-03 22:33N 43°36' E 007°08'0 0.0
2016-Aug-03 21:33N 43°36' E 007°08'0 0.0
2016-Aug-03 20:33N 43°36' E 007°08'0 0.0
2016-Aug-03 19:33N 43°36' E 007°08'0 0.0
2016-Aug-03 18:33N 43°36' E 007°08'0 0.0
2016-Aug-03 17:34N 43°36' E 007°08'0 0.0
2016-Aug-03 16:34N 43°36' E 007°08'0 0.0
2016-Aug-03 15:34N 43°36' E 007°08'0 0.0
2016-Aug-03 14:33N 43°36' E 007°08'3 3.0
2016-Aug-03 13:34N 43°33' E 007°09'41 9.7
2016-Aug-03 09:24N 43°00' E 006°37'16 8.8
2016-Aug-03 07:33N 42°52' E 006°17'9 9.0
2016-Aug-03 06:32N 42°47' E 006°06'  
2016-Jul-31 14:19N 41°06' E 001°15'0 0.0
2016-Jul-31 12:33N 41°06' E 001°15'0 0.0
2016-Jul-30 09:21N 41°06' E 001°15'  

Dump ship's entire track history